sensor_id;sensor_type;location;lat;lon;timestamp;pressure;altitude;pressure_sealevel;temperature;humidity
60489;BME280;46331;49.252;8.904;2023-02-01T00:00:11;100343.78;;;4.71;93.62
60489;BME280;46331;49.252;8.904;2023-02-01T00:00:52;100336.56;;;4.58;94.04
60489;BME280;46331;49.252;8.904;2023-02-01T00:01:32;100344.81;;;4.55;94.23
60489;BME280;46331;49.252;8.904;2023-02-01T00:02:13;100344.38;;;4.52;94.83
60489;BME280;46331;49.252;8.904;2023-02-01T00:02:53;100341.94;;;4.50;94.92
60489;BME280;46331;49.252;8.904;2023-02-01T00:03:34;100336.50;;;4.52;94.99
60489;BME280;46331;49.252;8.904;2023-02-01T00:04:14;100337.84;;;4.47;95.05
60489;BME280;46331;49.252;8.904;2023-02-01T00:04:55;100346.81;;;4.53;94.59
60489;BME280;46331;49.252;8.904;2023-02-01T00:05:36;100345.44;;;4.57;94.78
60489;BME280;46331;49.252;8.904;2023-02-01T00:06:16;100356.06;;;4.64;94.44
60489;BME280;46331;49.252;8.904;2023-02-01T00:06:57;100353.06;;;4.67;94.27
60489;BME280;46331;49.252;8.904;2023-02-01T00:07:37;100344.09;;;4.61;94.39
60489;BME280;46331;49.252;8.904;2023-02-01T00:08:18;100353.31;;;4.57;94.28
60489;BME280;46331;49.252;8.904;2023-02-01T00:08:58;100348.16;;;4.49;94.80
60489;BME280;46331;49.252;8.904;2023-02-01T00:09:39;100348.06;;;4.57;94.72
60489;BME280;46331;49.252;8.904;2023-02-01T00:10:19;100347.72;;;4.45;94.58
60489;BME280;46331;49.252;8.904;2023-02-01T00:11:06;100339.38;;;4.57;95.15
60489;BME280;46331;49.252;8.904;2023-02-01T00:11:47;100342.75;;;4.51;95.33
60489;BME280;46331;49.252;8.904;2023-02-01T00:12:27;100340.28;;;4.64;94.51
60489;BME280;46331;49.252;8.904;2023-02-01T00:13:08;100344.53;;;4.65;94.67
60489;BME280;46331;49.252;8.904;2023-02-01T00:13:49;100351.06;;;4.69;94.64
60489;BME280;46331;49.252;8.904;2023-02-01T00:14:29;100356.97;;;4.56;94.76
60489;BME280;46331;49.252;8.904;2023-02-01T00:15:10;100353.25;;;4.65;94.75
60489;BME280;46331;49.252;8.904;2023-02-01T00:15:51;100353.06;;;4.67;95.03
60489;BME280;46331;49.252;8.904;2023-02-01T00:16:31;100367.28;;;4.58;94.06
60489;BME280;46331;49.252;8.904;2023-02-01T00:17:12;100371.81;;;4.49;95.43
60489;BME280;46331;49.252;8.904;2023-02-01T00:17:54;100365.09;;;4.61;94.87
60489;BME280;46331;49.252;8.904;2023-02-01T00:18:35;100362.66;;;4.45;95.16
60489;BME280;46331;49.252;8.904;2023-02-01T00:19:15;100358.50;;;4.51;94.82
60489;BME280;46331;49.252;8.904;2023-02-01T00:19:56;100349.16;;;4.63;95.23
60489;BME280;46331;49.252;8.904;2023-02-01T00:20:36;100344.72;;;4.63;94.78
60489;BME280;46331;49.252;8.904;2023-02-01T00:21:20;100353.50;;;4.56;94.78
60489;BME280;46331;49.252;8.904;2023-02-01T00:22:01;100353.50;;;4.56;94.96
60489;BME280;46331;49.252;8.904;2023-02-01T00:22:41;100355.13;;;4.72;94.33
60489;BME280;46331;49.252;8.904;2023-02-01T00:23:22;100356.50;;;4.68;94.33
60489;BME280;46331;49.252;8.904;2023-02-01T00:24:03;100357.47;;;4.81;94.11
60489;BME280;46331;49.252;8.904;2023-02-01T00:24:44;100351.06;;;4.84;93.58
60489;BME280;46331;49.252;8.904;2023-02-01T00:25:24;100341.78;;;4.88;93.59
60489;BME280;46331;49.252;8.904;2023-02-01T00:26:07;100353.94;;;4.74;93.10
60489;BME280;46331;49.252;8.904;2023-02-01T00:26:48;100353.59;;;4.62;94.04
60489;BME280;46331;49.252;8.904;2023-02-01T00:27:28;100358.22;;;4.60;93.61
60489;BME280;46331;49.252;8.904;2023-02-01T00:28:09;100351.59;;;4.64;94.17
60489;BME280;46331;49.252;8.904;2023-02-01T00:28:50;100353.94;;;4.74;93.69
60489;BME280;46331;49.252;8.904;2023-02-01T00:29:30;100353.94;;;4.74;93.60
60489;BME280;46331;49.252;8.904;2023-02-01T00:30:11;100348.63;;;4.68;94.04
60489;BME280;46331;49.252;8.904;2023-02-01T00:30:59;100357.94;;;4.55;93.88
60489;BME280;46331;49.252;8.904;2023-02-01T00:31:40;100351.25;;;4.53;94.40
60489;BME280;46331;49.252;8.904;2023-02-01T00:32:21;100346.47;;;4.56;94.15
60489;BME280;46331;49.252;8.904;2023-02-01T00:33:02;100346.97;;;4.66;94.10
60489;BME280;46331;49.252;8.904;2023-02-01T00:33:42;100344.34;;;4.66;93.47
60489;BME280;46331;49.252;8.904;2023-02-01T00:34:23;100343.91;;;4.63;93.13
60489;BME280;46331;49.252;8.904;2023-02-01T00:35:04;100339.09;;;4.66;93.43
60489;BME280;46331;49.252;8.904;2023-02-01T00:35:45;100340.47;;;4.62;93.52
60489;BME280;46331;49.252;8.904;2023-02-01T00:36:25;100341.66;;;4.60;93.03
60489;BME280;46331;49.252;8.904;2023-02-01T00:37:06;100340.91;;;4.51;94.15
60489;BME280;46331;49.252;8.904;2023-02-01T00:37:46;100336.03;;;4.63;93.71
60489;BME280;46331;49.252;8.904;2023-02-01T00:38:28;100332.22;;;4.65;93.59
60489;BME280;46331;49.252;8.904;2023-02-01T00:39:09;100331.22;;;4.66;93.73
60489;BME280;46331;49.252;8.904;2023-02-01T00:39:50;100341.16;;;4.71;93.37
60489;BME280;46331;49.252;8.904;2023-02-01T00:40:31;100332.22;;;4.65;93.15
60489;BME280;46331;49.252;8.904;2023-02-01T00:41:17;100326.88;;;4.74;92.48
60489;BME280;46331;49.252;8.904;2023-02-01T00:41:59;100334.84;;;4.65;93.28
60489;BME280;46331;49.252;8.904;2023-02-01T00:42:40;100336.09;;;4.70;93.20
60489;BME280;46331;49.252;8.904;2023-02-01T00:43:20;100323.31;;;4.66;92.51
60489;BME280;46331;49.252;8.904;2023-02-01T00:44:01;100327.03;;;4.72;92.64
60489;BME280;46331;49.252;8.904;2023-02-01T00:44:44;100336.63;;;4.80;92.85
60489;BME280;46331;49.252;8.904;2023-02-01T00:45:24;100332.91;;;4.74;92.55
60489;BME280;46331;49.252;8.904;2023-02-01T00:46:05;100328.59;;;4.66;93.08
60489;BME280;46331;49.252;8.904;2023-02-01T00:46:46;100332.31;;;4.72;93.06
60489;BME280;46331;49.252;8.904;2023-02-01T00:47:26;100336.56;;;4.73;92.69
60489;BME280;46331;49.252;8.904;2023-02-01T00:48:07;100336.94;;;4.70;93.03
60489;BME280;46331;49.252;8.904;2023-02-01T00:48:48;100332.91;;;4.74;92.60
60489;BME280;46331;49.252;8.904;2023-02-01T00:49:28;100337.47;;;4.65;93.05
60489;BME280;46331;49.252;8.904;2023-02-01T00:50:09;100339.56;;;4.70;92.81
60489;BME280;46331;49.252;8.904;2023-02-01T00:50:50;100347.88;;;4.74;92.88
60489;BME280;46331;49.252;8.904;2023-02-01T00:51:31;100338.28;;;4.81;92.18
60489;BME280;46331;49.252;8.904;2023-02-01T00:52:11;100342.97;;;4.86;92.27
60489;BME280;46331;49.252;8.904;2023-02-01T00:52:52;100338.00;;;4.76;92.77
60489;BME280;46331;49.252;8.904;2023-02-01T00:53:33;100343.78;;;4.86;92.07
60489;BME280;46331;49.252;8.904;2023-02-01T00:54:14;100350.69;;;4.87;91.88
60489;BME280;46331;49.252;8.904;2023-02-01T00:54:54;100341.16;;;4.86;92.14
60489;BME280;46331;49.252;8.904;2023-02-01T00:55:35;100340.78;;;4.89;92.05
60489;BME280;46331;49.252;8.904;2023-02-01T00:56:16;100339.16;;;4.88;91.80
60489;BME280;46331;49.252;8.904;2023-02-01T00:56:57;100344.16;;;4.83;91.65
60489;BME280;46331;49.252;8.904;2023-02-01T00:57:37;100343.34;;;4.82;91.51
60489;BME280;46331;49.252;8.904;2023-02-01T00:58:18;100337.91;;;4.84;92.16
60489;BME280;46331;49.252;8.904;2023-02-01T00:58:58;100345.78;;;4.84;91.88
60489;BME280;46331;49.252;8.904;2023-02-01T00:59:39;100346.72;;;4.76;91.97
60489;BME280;46331;49.252;8.904;2023-02-01T01:00:20;100340.09;;;4.65;92.65
60489;BME280;46331;49.252;8.904;2023-02-01T01:01:07;100341.47;;;4.61;92.68
60489;BME280;46331;49.252;8.904;2023-02-01T01:01:48;100341.09;;;4.64;92.67
60489;BME280;46331;49.252;8.904;2023-02-01T01:02:29;100333.41;;;4.63;92.74
60489;BME280;46331;49.252;8.904;2023-02-01T01:03:09;100339.09;;;4.66;92.64
60489;BME280;46331;49.252;8.904;2023-02-01T01:03:59;100341.81;;;4.73;92.48
60489;BME280;46331;49.252;8.904;2023-02-01T01:04:40;100347.16;;;4.80;92.20
60489;BME280;46331;49.252;8.904;2023-02-01T01:05:21;100344.81;;;4.70;92.61
60489;BME280;46331;49.252;8.904;2023-02-01T01:06:03;100344.28;;;4.75;92.58
60489;BME280;46331;49.252;8.904;2023-02-01T01:06:44;100337.44;;;4.80;91.53
60489;BME280;46331;49.252;8.904;2023-02-01T01:07:25;100343.78;;;4.86;91.66
60489;BME280;46331;49.252;8.904;2023-02-01T01:08:05;100349.22;;;4.84;92.19
60489;BME280;46331;49.252;8.904;2023-02-01T01:08:46;100350.50;;;4.89;91.31
60489;BME280;46331;49.252;8.904;2023-02-01T01:09:27;100359.56;;;4.86;91.73
60489;BME280;46331;49.252;8.904;2023-02-01T01:10:08;100360.81;;;4.90;91.69
60489;BME280;46331;49.252;8.904;2023-02-01T01:10:49;100352.56;;;4.93;92.01
60489;BME280;46331;49.252;8.904;2023-02-01T01:11:32;100359.91;;;4.98;91.53
60489;BME280;46331;49.252;8.904;2023-02-01T01:12:13;100364.38;;;4.68;91.70
60489;BME280;46331;49.252;8.904;2023-02-01T01:12:53;100358.75;;;4.71;92.69
60489;BME280;46331;49.252;8.904;2023-02-01T01:13:34;100354.78;;;4.75;92.37
60489;BME280;46331;49.252;8.904;2023-02-01T01:14:15;100356.31;;;4.84;92.49
60489;BME280;46331;49.252;8.904;2023-02-01T01:14:56;100359.25;;;4.96;91.72
60489;BME280;46331;49.252;8.904;2023-02-01T01:15:38;100364.31;;;4.97;91.69
60489;BME280;46331;49.252;8.904;2023-02-01T01:16:20;100360.34;;;5.01;90.97
60489;BME280;46331;49.252;8.904;2023-02-01T01:17:00;100363.00;;;4.87;91.32
60489;BME280;46331;49.252;8.904;2023-02-01T01:17:41;100367.44;;;4.86;91.79
60489;BME280;46331;49.252;8.904;2023-02-01T01:18:21;100366.44;;;4.87;91.26
60489;BME280;46331;49.252;8.904;2023-02-01T01:19:03;100364.44;;;4.89;91.78
60489;BME280;46331;49.252;8.904;2023-02-01T01:19:43;100361.97;;;5.03;91.64
60489;BME280;46331;49.252;8.904;2023-02-01T01:20:24;100364.59;;;5.03;90.84
60489;BME280;46331;49.252;8.904;2023-02-01T01:21:05;100356.72;;;5.03;91.38
60489;BME280;46331;49.252;8.904;2023-02-01T01:21:46;100352.47;;;5.01;91.07
60489;BME280;46331;49.252;8.904;2023-02-01T01:22:27;100359.53;;;5.01;90.99
60489;BME280;46331;49.252;8.904;2023-02-01T01:23:08;100364.44;;;5.04;90.70
60489;BME280;46331;49.252;8.904;2023-02-01T01:23:49;100363.53;;;4.97;91.31
60489;BME280;46331;49.252;8.904;2023-02-01T01:24:29;100365.00;;;4.84;92.05
60489;BME280;46331;49.252;8.904;2023-02-01T01:25:09;100357.59;;;4.73;92.18
60489;BME280;46331;49.252;8.904;2023-02-01T01:25:52;100351.66;;;4.86;91.93
60489;BME280;46331;49.252;8.904;2023-02-01T01:26:33;100359.00;;;4.91;91.81
60489;BME280;46331;49.252;8.904;2023-02-01T01:27:14;100351.31;;;4.89;92.04
60489;BME280;46331;49.252;8.904;2023-02-01T01:27:54;100361.00;;;4.89;92.08
60489;BME280;46331;49.252;8.904;2023-02-01T01:28:35;100354.66;;;4.98;91.62
60489;BME280;46331;49.252;8.904;2023-02-01T01:29:16;100360.00;;;4.90;92.09
60489;BME280;46331;49.252;8.904;2023-02-01T01:29:57;100352.94;;;4.90;91.99
60489;BME280;46331;49.252;8.904;2023-02-01T01:30:38;100348.06;;;4.87;91.95
60489;BME280;46331;49.252;8.904;2023-02-01T01:31:19;100346.78;;;4.83;92.14
60489;BME280;46331;49.252;8.904;2023-02-01T01:32:00;100351.75;;;4.93;91.65
60489;BME280;46331;49.252;8.904;2023-02-01T01:32:41;100345.94;;;4.97;91.71
60489;BME280;46331;49.252;8.904;2023-02-01T01:33:21;100352.66;;;4.85;91.71
60489;BME280;46331;49.252;8.904;2023-02-01T01:34:02;100347.78;;;4.82;92.44
60489;BME280;46331;49.252;8.904;2023-02-01T01:34:43;100337.06;;;4.83;91.90
60489;BME280;46331;49.252;8.904;2023-02-01T01:35:24;100336.53;;;4.88;91.67
60489;BME280;46331;49.252;8.904;2023-02-01T01:36:06;100339.44;;;4.93;91.26
60489;BME280;46331;49.252;8.904;2023-02-01T01:36:46;100335.03;;;5.00;90.92
60489;BME280;46331;49.252;8.904;2023-02-01T01:37:27;100342.78;;;4.87;91.27
60489;BME280;46331;49.252;8.904;2023-02-01T01:38:09;100325.03;;;4.89;91.50
60489;BME280;46331;49.252;8.904;2023-02-01T01:38:50;100330.72;;;4.93;91.54
60489;BME280;46331;49.252;8.904;2023-02-01T01:39:31;100332.09;;;4.89;90.99
60489;BME280;46331;49.252;8.904;2023-02-01T01:40:12;100323.00;;;4.91;90.91
60489;BME280;46331;49.252;8.904;2023-02-01T01:40:53;100330.34;;;4.96;90.73
60489;BME280;46331;49.252;8.904;2023-02-01T01:41:33;100329.78;;;5.00;90.68
60489;BME280;46331;49.252;8.904;2023-02-01T01:42:27;100336.09;;;4.84;91.01
60489;BME280;46331;49.252;8.904;2023-02-01T01:43:15;100329.09;;;4.92;91.00
60489;BME280;46331;49.252;8.904;2023-02-01T01:43:58;100334.19;;;4.93;90.92
60489;BME280;46331;49.252;8.904;2023-02-01T01:45:06;100326.91;;;4.95;90.50
60489;BME280;46331;49.252;8.904;2023-02-01T01:45:49;100332.22;;;5.02;90.38
60489;BME280;46331;49.252;8.904;2023-02-01T01:46:36;100355.44;;;4.98;90.32
60489;BME280;46331;49.252;8.904;2023-02-01T01:47:18;100331.09;;;4.90;90.69
60489;BME280;46331;49.252;8.904;2023-02-01T01:48:05;100344.31;;;4.96;90.57
60489;BME280;46331;49.252;8.904;2023-02-01T01:48:50;100327.03;;;4.72;91.28
60489;BME280;46331;49.252;8.904;2023-02-01T01:49:31;100334.25;;;4.85;90.82
60489;BME280;46331;49.252;8.904;2023-02-01T01:50:16;100328.81;;;5.01;90.41
60489;BME280;46331;49.252;8.904;2023-02-01T01:51:04;100338.41;;;4.94;91.21
60489;BME280;46331;49.252;8.904;2023-02-01T01:51:50;100330.66;;;4.86;91.17
60489;BME280;46331;49.252;8.904;2023-02-01T01:52:31;100323.47;;;4.95;90.73
60489;BME280;46331;49.252;8.904;2023-02-01T01:53:13;100332.53;;;4.92;90.76
60489;BME280;46331;49.252;8.904;2023-02-01T01:54:07;100327.03;;;4.87;90.26
60489;BME280;46331;49.252;8.904;2023-02-01T01:54:50;100325.47;;;4.93;90.70
60489;BME280;46331;49.252;8.904;2023-02-01T01:55:35;100322.75;;;5.01;90.61
60489;BME280;46331;49.252;8.904;2023-02-01T01:56:17;100325.28;;;4.94;90.77
60489;BME280;46331;49.252;8.904;2023-02-01T01:57:02;100321.41;;;4.90;90.76
60489;BME280;46331;49.252;8.904;2023-02-01T01:57:48;100318.59;;;4.92;90.95
60489;BME280;46331;49.252;8.904;2023-02-01T01:58:32;100319.94;;;4.88;91.19
60489;BME280;46331;49.252;8.904;2023-02-01T01:59:14;100325.56;;;4.99;90.56
60489;BME280;46331;49.252;8.904;2023-02-01T02:00:08;100316.16;;;4.90;90.61
60489;BME280;46331;49.252;8.904;2023-02-01T02:00:56;100329.16;;;4.98;91.03
60489;BME280;46331;49.252;8.904;2023-02-01T02:01:37;100305.25;;;4.93;90.54
60489;BME280;46331;49.252;8.904;2023-02-01T02:02:17;100323.84;;;4.92;91.20
60489;BME280;46331;49.252;8.904;2023-02-01T02:03:01;100330.44;;;5.03;90.67
60489;BME280;46331;49.252;8.904;2023-02-01T02:03:45;100324.09;;;4.97;90.30
60489;BME280;46331;49.252;8.904;2023-02-01T02:04:26;100328.81;;;5.01;89.89
60489;BME280;46331;49.252;8.904;2023-02-01T02:05:07;100324.09;;;4.97;90.03
60489;BME280;46331;49.252;8.904;2023-02-01T02:05:50;100324.81;;;5.06;90.05
60489;BME280;46331;49.252;8.904;2023-02-01T02:07:28;100326.59;;;5.05;90.54
60489;BME280;46331;49.252;8.904;2023-02-01T02:08:13;100318.44;;;5.15;89.84
60489;BME280;46331;49.252;8.904;2023-02-01T02:08:54;100316.78;;;5.14;89.50
60489;BME280;46331;49.252;8.904;2023-02-01T02:09:35;100315.44;;;5.18;89.17
60489;BME280;46331;49.252;8.904;2023-02-01T02:10:16;100306.22;;;5.07;89.31
60489;BME280;46331;49.252;8.904;2023-02-01T02:10:57;100312.81;;;5.18;89.35
60489;BME280;46331;49.252;8.904;2023-02-01T02:11:40;100303.41;;;5.09;89.16
60489;BME280;46331;49.252;8.904;2023-02-01T02:12:21;100302.47;;;5.16;89.59
60489;BME280;46331;49.252;8.904;2023-02-01T02:13:02;100300.09;;;5.22;89.27
60489;BME280;46331;49.252;8.904;2023-02-01T02:13:46;100303.09;;;5.18;89.08
60489;BME280;46331;49.252;8.904;2023-02-01T02:14:28;100294.41;;;5.18;88.77
60489;BME280;46331;49.252;8.904;2023-02-01T02:15:12;100297.03;;;5.18;88.60
60489;BME280;46331;49.252;8.904;2023-02-01T02:18:05;100303.53;;;5.22;89.01
60489;BME280;46331;49.252;8.904;2023-02-01T02:20:35;100310.91;;;5.12;89.39
60489;BME280;46331;49.252;8.904;2023-02-01T02:24:55;100307.28;;;5.13;88.81
60489;BME280;46331;49.252;8.904;2023-02-01T02:33:37;100292.72;;;5.32;88.24
60489;BME280;46331;49.252;8.904;2023-02-01T02:34:39;100303.66;;;5.35;88.54
60489;BME280;46331;49.252;8.904;2023-02-01T02:35:44;100303.03;;;5.33;87.78
60489;BME280;46331;49.252;8.904;2023-02-01T02:41:54;100307.41;;;5.26;88.56
60489;BME280;46331;49.252;8.904;2023-02-01T02:43:11;100314.31;;;5.27;88.26
60489;BME280;46331;49.252;8.904;2023-02-01T02:44:42;100321.41;;;5.27;88.24
60489;BME280;46331;49.252;8.904;2023-02-01T02:45:51;100315.44;;;5.18;88.27
60489;BME280;46331;49.252;8.904;2023-02-01T02:46:58;100309.91;;;5.13;89.17
60489;BME280;46331;49.252;8.904;2023-02-01T02:49:54;100312.59;;;4.98;89.02
60489;BME280;46331;49.252;8.904;2023-02-01T02:51:02;100326.00;;;5.03;89.27
60489;BME280;46331;49.252;8.904;2023-02-01T02:52:12;100323.91;;;4.98;89.12
60489;BME280;46331;49.252;8.904;2023-02-01T02:53:16;100315.91;;;5.07;89.32
60489;BME280;46331;49.252;8.904;2023-02-01T02:54:20;100306.19;;;4.86;89.56
60489;BME280;46331;49.252;8.904;2023-02-01T02:55:23;100298.06;;;5.02;89.28
60489;BME280;46331;49.252;8.904;2023-02-01T02:56:06;100298.44;;;4.99;89.49
60489;BME280;46331;49.252;8.904;2023-02-01T02:57:09;100306.00;;;4.87;89.54
60489;BME280;46331;49.252;8.904;2023-02-01T02:58:12;100308.16;;;4.83;89.66
60489;BME280;46331;49.252;8.904;2023-02-01T02:59:14;100287.34;;;4.82;89.65
60489;BME280;46331;49.252;8.904;2023-02-01T03:00:18;100280.16;;;4.91;89.01
60489;BME280;46331;49.252;8.904;2023-02-01T03:01:18;100266.78;;;4.86;88.96
60489;BME280;46331;49.252;8.904;2023-02-01T03:02:17;100277.75;;;4.74;89.94
60489;BME280;46331;49.252;8.904;2023-02-01T03:03:17;100260.75;;;4.70;90.36
60489;BME280;46331;49.252;8.904;2023-02-01T03:04:16;100259.63;;;4.79;90.38
60489;BME280;46331;49.252;8.904;2023-02-01T03:05:00;100252.31;;;4.75;90.02
60489;BME280;46331;49.252;8.904;2023-02-01T03:05:44;100253.41;;;4.65;90.58
60489;BME280;46331;49.252;8.904;2023-02-01T03:06:26;100259.28;;;4.68;90.69
60489;BME280;46331;49.252;8.904;2023-02-01T03:08:33;100265.06;;;4.78;90.16
60489;BME280;46331;49.252;8.904;2023-02-01T03:09:26;100267.75;;;4.84;89.92
60489;BME280;46331;49.252;8.904;2023-02-01T03:11:13;100257.75;;;4.73;90.79
60489;BME280;46331;49.252;8.904;2023-02-01T03:11:59;100247.66;;;4.77;90.39
60489;BME280;46331;49.252;8.904;2023-02-01T03:13:22;100244.47;;;4.81;90.28
60489;BME280;46331;49.252;8.904;2023-02-01T03:14:05;100251.25;;;4.91;89.71
60489;BME280;46331;49.252;8.904;2023-02-01T03:14:51;100252.31;;;4.75;90.37
60489;BME280;46331;49.252;8.904;2023-02-01T03:15:38;100263.50;;;4.83;89.94
60489;BME280;46331;49.252;8.904;2023-02-01T03:16:34;100260.47;;;5.01;89.73
60489;BME280;46331;49.252;8.904;2023-02-01T03:17:22;100272.53;;;4.96;89.30
60489;BME280;46331;49.252;8.904;2023-02-01T03:18:13;100264.63;;;4.96;89.69
60489;BME280;46331;49.252;8.904;2023-02-01T03:19:14;100270.22;;;4.86;89.83
60489;BME280;46331;49.252;8.904;2023-02-01T03:19:59;100269.78;;;4.82;90.31
60489;BME280;46331;49.252;8.904;2023-02-01T03:20:45;100272.47;;;4.89;90.53
60489;BME280;46331;49.252;8.904;2023-02-01T03:21:41;100271.97;;;5.00;89.73
60489;BME280;46331;49.252;8.904;2023-02-01T03:22:27;100263.50;;;5.05;89.23
60489;BME280;46331;49.252;8.904;2023-02-01T03:23:14;100274.69;;;5.07;89.28
60489;BME280;46331;49.252;8.904;2023-02-01T03:23:59;100276.66;;;5.05;89.01
60489;BME280;46331;49.252;8.904;2023-02-01T03:24:55;100276.84;;;5.04;88.89
60489;BME280;46331;49.252;8.904;2023-02-01T03:25:38;100279.22;;;4.98;89.00
60489;BME280;46331;49.252;8.904;2023-02-01T03:26:21;100282.03;;;4.97;89.21
60489;BME280;46331;49.252;8.904;2023-02-01T03:28:06;100280.78;;;5.14;89.07
60489;BME280;46331;49.252;8.904;2023-02-01T03:28:56;100274.50;;;5.09;89.04
60489;BME280;46331;49.252;8.904;2023-02-01T03:29:45;100274.50;;;5.09;88.89
60489;BME280;46331;49.252;8.904;2023-02-01T03:30:42;100284.06;;;4.95;89.92
60489;BME280;46331;49.252;8.904;2023-02-01T03:31:24;100277.19;;;4.79;90.57
60489;BME280;46331;49.252;8.904;2023-02-01T03:32:05;100279.38;;;4.75;90.73
60489;BME280;46331;49.252;8.904;2023-02-01T03:32:48;100267.06;;;4.76;91.13
60489;BME280;46331;49.252;8.904;2023-02-01T03:33:41;100270.56;;;4.83;91.01
60489;BME280;46331;49.252;8.904;2023-02-01T03:34:22;100260.81;;;4.77;91.13
60489;BME280;46331;49.252;8.904;2023-02-01T03:35:03;100255.38;;;4.78;91.29
60489;BME280;46331;49.252;8.904;2023-02-01T03:36:40;100258.34;;;4.90;90.69
60489;BME280;46331;49.252;8.904;2023-02-01T03:37:26;100263.03;;;4.95;90.91
60489;BME280;46331;49.252;8.904;2023-02-01T03:39:11;100266.59;;;4.87;90.68
60489;BME280;46331;49.252;8.904;2023-02-01T03:40:01;100255.19;;;5.01;90.59
60489;BME280;46331;49.252;8.904;2023-02-01T03:40:51;100262.00;;;4.96;90.04
60489;BME280;46331;49.252;8.904;2023-02-01T03:41:48;100261.53;;;4.86;90.77
60489;BME280;46331;49.252;8.904;2023-02-01T03:42:49;100261.94;;;4.89;90.69
60489;BME280;46331;49.252;8.904;2023-02-01T03:43:37;100265.72;;;5.01;90.64
60489;BME280;46331;49.252;8.904;2023-02-01T03:44:25;100266.88;;;4.99;90.07
60489;BME280;46331;49.252;8.904;2023-02-01T03:45:11;100262.09;;;5.03;90.35
60489;BME280;46331;49.252;8.904;2023-02-01T03:45:58;100260.22;;;4.96;90.02
60489;BME280;46331;49.252;8.904;2023-02-01T03:46:49;100265.38;;;4.90;90.29
60489;BME280;46331;49.252;8.904;2023-02-01T03:47:35;100273.72;;;4.93;90.53
60489;BME280;46331;49.252;8.904;2023-02-01T03:48:18;100272.66;;;4.88;90.32
60489;BME280;46331;49.252;8.904;2023-02-01T03:49:03;100259.50;;;4.88;90.82
60489;BME280;46331;49.252;8.904;2023-02-01T03:49:50;100276.19;;;4.80;90.86
60489;BME280;46331;49.252;8.904;2023-02-01T03:50:35;100261.44;;;4.79;90.75
60489;BME280;46331;49.252;8.904;2023-02-01T03:51:20;100266.13;;;4.83;91.24
60489;BME280;46331;49.252;8.904;2023-02-01T03:52:02;100264.22;;;4.92;90.55
60489;BME280;46331;49.252;8.904;2023-02-01T03:52:50;100260.78;;;4.92;90.37
60489;BME280;46331;49.252;8.904;2023-02-01T03:53:34;100257.97;;;4.93;90.24
60489;BME280;46331;49.252;8.904;2023-02-01T03:54:17;100262.75;;;4.90;90.58
60489;BME280;46331;49.252;8.904;2023-02-01T03:54:58;100252.69;;;4.93;90.60
60489;BME280;46331;49.252;8.904;2023-02-01T03:55:39;100252.94;;;4.77;91.43
60489;BME280;46331;49.252;8.904;2023-02-01T03:56:21;100250.53;;;4.82;90.99
60489;BME280;46331;49.252;8.904;2023-02-01T03:57:07;100250.91;;;4.79;91.37
60489;BME280;46331;49.252;8.904;2023-02-01T03:57:57;100253.00;;;4.83;90.65
60489;BME280;46331;49.252;8.904;2023-02-01T03:58:39;100266.59;;;4.87;90.40
60489;BME280;46331;49.252;8.904;2023-02-01T03:59:20;100251.94;;;4.78;90.91
60489;BME280;46331;49.252;8.904;2023-02-01T04:00:14;100264.34;;;4.69;91.46
60489;BME280;46331;49.252;8.904;2023-02-01T04:00:59;100278.06;;;4.64;91.84
60489;BME280;46331;49.252;8.904;2023-02-01T04:01:43;100266.31;;;4.82;91.18
60489;BME280;46331;49.252;8.904;2023-02-01T04:02:24;100272.03;;;4.86;90.75
60489;BME280;46331;49.252;8.904;2023-02-01T04:03:06;100273.25;;;4.90;90.39
60489;BME280;46331;49.252;8.904;2023-02-01T04:03:46;100271.78;;;5.02;90.24
60489;BME280;46331;49.252;8.904;2023-02-01T04:04:27;100268.91;;;4.97;89.98
60489;BME280;46331;49.252;8.904;2023-02-01T04:05:09;100292.31;;;4.92;90.50
60489;BME280;46331;49.252;8.904;2023-02-01T04:05:52;100266.84;;;4.92;90.35
60489;BME280;46331;49.252;8.904;2023-02-01T04:06:36;100278.81;;;4.80;90.66
60489;BME280;46331;49.252;8.904;2023-02-01T04:07:18;100268.47;;;4.93;90.68
60489;BME280;46331;49.252;8.904;2023-02-01T04:07:59;100267.81;;;4.91;90.34
60489;BME280;46331;49.252;8.904;2023-02-01T04:08:40;100272.84;;;4.86;90.60
60489;BME280;46331;49.252;8.904;2023-02-01T04:09:20;100276.25;;;4.87;90.47
60489;BME280;46331;49.252;8.904;2023-02-01T04:10:04;100265.56;;;4.88;90.42
60489;BME280;46331;49.252;8.904;2023-02-01T04:10:45;100275.47;;;4.86;90.84
60489;BME280;46331;49.252;8.904;2023-02-01T04:11:26;100272.72;;;4.94;90.36
60489;BME280;46331;49.252;8.904;2023-02-01T04:12:07;100267.56;;;4.86;90.72
60489;BME280;46331;49.252;8.904;2023-02-01T04:12:48;100272.84;;;4.86;90.83
60489;BME280;46331;49.252;8.904;2023-02-01T04:13:28;100273.91;;;4.92;90.41
60489;BME280;46331;49.252;8.904;2023-02-01T04:14:09;100272.47;;;4.89;90.61
60489;BME280;46331;49.252;8.904;2023-02-01T04:14:50;100271.72;;;4.95;90.79
60489;BME280;46331;49.252;8.904;2023-02-01T04:15:30;100280.53;;;4.88;89.91
60489;BME280;46331;49.252;8.904;2023-02-01T04:16:11;100275.22;;;4.81;90.87
60489;BME280;46331;49.252;8.904;2023-02-01T04:16:51;100275.47;;;4.86;90.60
60489;BME280;46331;49.252;8.904;2023-02-01T04:17:32;100260.50;;;4.87;90.68
60489;BME280;46331;49.252;8.904;2023-02-01T04:18:12;100266.69;;;4.79;91.41
60489;BME280;46331;49.252;8.904;2023-02-01T04:18:53;100259.69;;;4.86;90.99
60489;BME280;46331;49.252;8.904;2023-02-01T04:19:33;100266.66;;;4.94;90.28
60489;BME280;46331;49.252;8.904;2023-02-01T04:20:14;100263.97;;;4.87;90.46
60489;BME280;46331;49.252;8.904;2023-02-01T04:20:54;100255.44;;;4.85;90.96
60489;BME280;46331;49.252;8.904;2023-02-01T04:21:35;100262.66;;;4.98;90.11
60489;BME280;46331;49.252;8.904;2023-02-01T04:22:15;100259.84;;;4.99;90.50
60489;BME280;46331;49.252;8.904;2023-02-01T04:22:56;100258.69;;;4.87;90.39
60489;BME280;46331;49.252;8.904;2023-02-01T04:23:36;100260.25;;;4.81;90.38
60489;BME280;46331;49.252;8.904;2023-02-01T04:24:17;100257.50;;;4.90;90.35